sensor_id;sensor_type;location;lat;lon;timestamp;temperature;humidity
4960;DHT22;2495;48.200;11.532;2022-12-20T00:03:50;4.00;82.70
4960;DHT22;2495;48.200;11.532;2022-12-20T00:08:54;3.90;83.40
4960;DHT22;2495;48.200;11.532;2022-12-20T00:13:56;3.80;83.20
4960;DHT22;2495;48.200;11.532;2022-12-20T00:18:57;3.90;82.90
4960;DHT22;2495;48.200;11.532;2022-12-20T00:23:58;3.80;82.70
4960;DHT22;2495;48.200;11.532;2022-12-20T00:29:00;3.80;82.60
4960;DHT22;2495;48.200;11.532;2022-12-20T00:34:01;3.80;82.50
4960;DHT22;2495;48.200;11.532;2022-12-20T00:39:10;3.90;82.50
4960;DHT22;2495;48.200;11.532;2022-12-20T00:44:11;3.90;82.70
4960;DHT22;2495;48.200;11.532;2022-12-20T00:49:13;3.90;82.50
4960;DHT22;2495;48.200;11.532;2022-12-20T00:54:18;4.00;82.40
4960;DHT22;2495;48.200;11.532;2022-12-20T00:59:17;4.00;82.50
4960;DHT22;2495;48.200;11.532;2022-12-20T01:04:19;4.10;82.30
4960;DHT22;2495;48.200;11.532;2022-12-20T01:09:20;4.10;82.00
4960;DHT22;2495;48.200;11.532;2022-12-20T01:14:22;4.10;82.00
4960;DHT22;2495;48.200;11.532;2022-12-20T01:19:24;4.30;83.20
4960;DHT22;2495;48.200;11.532;2022-12-20T01:24:26;4.70;82.70
4960;DHT22;2495;48.200;11.532;2022-12-20T01:29:27;4.70;81.90
4960;DHT22;2495;48.200;11.532;2022-12-20T01:34:29;4.60;81.60
4960;DHT22;2495;48.200;11.532;2022-12-20T01:39:30;4.40;81.60
4960;DHT22;2495;48.200;11.532;2022-12-20T01:49:43;4.30;82.20
4960;DHT22;2495;48.200;11.532;2022-12-20T01:54:51;4.20;82.00
4960;DHT22;2495;48.200;11.532;2022-12-20T01:59:51;4.40;83.20
4960;DHT22;2495;48.200;11.532;2022-12-20T02:04:53;4.80;82.40
4960;DHT22;2495;48.200;11.532;2022-12-20T02:09:55;4.80;81.30
4960;DHT22;2495;48.200;11.532;2022-12-20T02:31:02;4.30;81.60
4960;DHT22;2495;48.200;11.532;2022-12-20T02:36:03;4.50;82.50
4960;DHT22;2495;48.200;11.532;2022-12-20T02:41:28;4.80;82.20
4960;DHT22;2495;48.200;11.532;2022-12-20T02:46:24;4.80;81.30
4960;DHT22;2495;48.200;11.532;2022-12-20T02:51:26;4.60;80.50
4960;DHT22;2495;48.200;11.532;2022-12-20T02:56:30;4.40;80.10
4960;DHT22;2495;48.200;11.532;2022-12-20T03:01:30;4.30;80.30
4960;DHT22;2495;48.200;11.532;2022-12-20T03:06:37;4.20;80.70
4960;DHT22;2495;48.200;11.532;2022-12-20T03:11:38;4.20;81.10
4960;DHT22;2495;48.200;11.532;2022-12-20T03:16:39;4.20;80.80
4960;DHT22;2495;48.200;11.532;2022-12-20T03:21:41;4.30;81.00
4960;DHT22;2495;48.200;11.532;2022-12-20T03:26:43;4.30;80.90
4960;DHT22;2495;48.200;11.532;2022-12-20T03:31:44;4.30;80.40
4960;DHT22;2495;48.200;11.532;2022-12-20T03:36:46;4.30;80.90
4960;DHT22;2495;48.200;11.532;2022-12-20T03:41:47;4.20;81.00
4960;DHT22;2495;48.200;11.532;2022-12-20T03:46:49;4.20;81.20
4960;DHT22;2495;48.200;11.532;2022-12-20T03:51:50;4.30;81.30
4960;DHT22;2495;48.200;11.532;2022-12-20T03:56:52;4.60;82.70
4960;DHT22;2495;48.200;11.532;2022-12-20T04:01:53;4.80;81.50
4960;DHT22;2495;48.200;11.532;2022-12-20T04:06:54;4.80;81.00
4960;DHT22;2495;48.200;11.532;2022-12-20T04:11:56;4.70;81.00
4960;DHT22;2495;48.200;11.532;2022-12-20T04:17:03;4.60;81.00
4960;DHT22;2495;48.200;11.532;2022-12-20T04:22:09;4.80;82.90
4960;DHT22;2495;48.200;11.532;2022-12-20T04:27:11;4.90;80.90
4960;DHT22;2495;48.200;11.532;2022-12-20T04:32:16;4.80;80.90
4960;DHT22;2495;48.200;11.532;2022-12-20T04:37:20;4.70;81.10
4960;DHT22;2495;48.200;11.532;2022-12-20T04:42:21;4.60;80.60
4960;DHT22;2495;48.200;11.532;2022-12-20T04:47:22;4.60;80.90
4960;DHT22;2495;48.200;11.532;2022-12-20T04:52:24;4.50;80.70
4960;DHT22;2495;48.200;11.532;2022-12-20T04:57:44;4.40;81.20
4960;DHT22;2495;48.200;11.532;2022-12-20T05:02:45;4.30;81.30
4960;DHT22;2495;48.200;11.532;2022-12-20T05:07:47;4.60;82.70
4960;DHT22;2495;48.200;11.532;2022-12-20T05:12:48;4.80;81.60
4960;DHT22;2495;48.200;11.532;2022-12-20T05:17:50;4.60;81.10
4960;DHT22;2495;48.200;11.532;2022-12-20T05:22:52;4.50;81.50
4960;DHT22;2495;48.200;11.532;2022-12-20T05:28:11;4.60;81.80
4960;DHT22;2495;48.200;11.532;2022-12-20T05:33:13;4.60;81.60
4960;DHT22;2495;48.200;11.532;2022-12-20T05:38:14;4.70;81.40
4960;DHT22;2495;48.200;11.532;2022-12-20T05:43:16;5.00;82.60
4960;DHT22;2495;48.200;11.532;2022-12-20T05:48:18;5.10;82.00
4960;DHT22;2495;48.200;11.532;2022-12-20T05:53:18;5.00;81.70
4960;DHT22;2495;48.200;11.532;2022-12-20T05:58:20;4.90;81.70
4960;DHT22;2495;48.200;11.532;2022-12-20T06:03:21;5.10;83.20
4960;DHT22;2495;48.200;11.532;2022-12-20T06:08:23;5.10;81.70
4960;DHT22;2495;48.200;11.532;2022-12-20T06:13:24;4.90;81.40
4960;DHT22;2495;48.200;11.532;2022-12-20T06:18:26;5.00;83.00
4960;DHT22;2495;48.200;11.532;2022-12-20T06:23:28;5.10;81.70
4960;DHT22;2495;48.200;11.532;2022-12-20T06:28:30;5.00;81.60
4960;DHT22;2495;48.200;11.532;2022-12-20T06:33:32;4.90;81.00
4960;DHT22;2495;48.200;11.532;2022-12-20T06:38:34;4.80;81.00
4960;DHT22;2495;48.200;11.532;2022-12-20T06:43:38;5.00;82.60
4960;DHT22;2495;48.200;11.532;2022-12-20T07:26:57;5.00;80.90
4960;DHT22;2495;48.200;11.532;2022-12-20T07:31:59;4.90;80.70
4960;DHT22;2495;48.200;11.532;2022-12-20T07:37:00;4.90;80.40
4960;DHT22;2495;48.200;11.532;2022-12-20T07:42:02;4.90;80.70
4960;DHT22;2495;48.200;11.532;2022-12-20T07:47:03;4.90;80.70
4960;DHT22;2495;48.200;11.532;2022-12-20T07:52:04;4.90;80.60
4960;DHT22;2495;48.200;11.532;2022-12-20T08:15:10;4.90;80.70
4960;DHT22;2495;48.200;11.532;2022-12-20T08:20:39;4.90;81.40
4960;DHT22;2495;48.200;11.532;2022-12-20T11:17:05;8.20;78.20
4960;DHT22;2495;48.200;11.532;2022-12-20T11:35:10;9.00;77.90
4960;DHT22;2495;48.200;11.532;2022-12-20T11:53:44;10.30;75.50
4960;DHT22;2495;48.200;11.532;2022-12-20T11:58:50;11.20;75.40
4960;DHT22;2495;48.200;11.532;2022-12-20T12:03:59;11.20;75.10
4960;DHT22;2495;48.200;11.532;2022-12-20T12:14:14;10.70;74.10
4960;DHT22;2495;48.200;11.532;2022-12-20T12:19:10;10.20;73.90
4960;DHT22;2495;48.200;11.532;2022-12-20T12:29:18;9.60;75.40
4960;DHT22;2495;48.200;11.532;2022-12-20T12:34:43;9.50;75.20
4960;DHT22;2495;48.200;11.532;2022-12-20T12:45:19;9.60;76.20
4960;DHT22;2495;48.200;11.532;2022-12-20T12:50:29;9.50;76.00
4960;DHT22;2495;48.200;11.532;2022-12-20T13:00:47;9.30;76.10
4960;DHT22;2495;48.200;11.532;2022-12-20T13:05:47;9.40;78.10
4960;DHT22;2495;48.200;11.532;2022-12-20T13:15:51;9.50;77.10
4960;DHT22;2495;48.200;11.532;2022-12-20T13:21:23;9.30;76.80
4960;DHT22;2495;48.200;11.532;2022-12-20T13:26:55;9.10;77.10
4960;DHT22;2495;48.200;11.532;2022-12-20T13:31:54;9.10;78.70
4960;DHT22;2495;48.200;11.532;2022-12-20T13:36:58;9.00;76.90
4960;DHT22;2495;48.200;11.532;2022-12-20T13:42:53;9.00;77.90
4960;DHT22;2495;48.200;11.532;2022-12-20T13:47:37;8.90;76.90
4960;DHT22;2495;48.200;11.532;2022-12-20T13:52:39;8.70;76.80
4960;DHT22;2495;48.200;11.532;2022-12-20T13:57:43;8.40;76.60
4960;DHT22;2495;48.200;11.532;2022-12-20T14:02:44;8.10;77.10
4960;DHT22;2495;48.200;11.532;2022-12-20T14:08:35;8.00;77.10
4960;DHT22;2495;48.200;11.532;2022-12-20T14:12:58;7.90;77.70
4960;DHT22;2495;48.200;11.532;2022-12-20T14:18:15;8.00;77.40
4960;DHT22;2495;48.200;11.532;2022-12-20T14:23:16;8.20;77.90
4960;DHT22;2495;48.200;11.532;2022-12-20T14:28:38;8.30;77.80
4960;DHT22;2495;48.200;11.532;2022-12-20T14:33:48;8.40;77.60
4960;DHT22;2495;48.200;11.532;2022-12-20T14:38:50;8.10;77.20
4960;DHT22;2495;48.200;11.532;2022-12-20T14:43:56;7.80;78.00
4960;DHT22;2495;48.200;11.532;2022-12-20T14:54:21;7.70;79.50
4960;DHT22;2495;48.200;11.532;2022-12-20T14:59:26;7.60;78.60
4960;DHT22;2495;48.200;11.532;2022-12-20T15:04:30;7.70;79.40
4960;DHT22;2495;48.200;11.532;2022-12-20T15:09:31;7.60;79.40
4960;DHT22;2495;48.200;11.532;2022-12-20T15:14:36;7.50;78.50
4960;DHT22;2495;48.200;11.532;2022-12-20T15:19:36;7.30;78.90
4960;DHT22;2495;48.200;11.532;2022-12-20T15:24:38;7.30;79.00
4960;DHT22;2495;48.200;11.532;2022-12-20T15:29:40;7.30;79.30
4960;DHT22;2495;48.200;11.532;2022-12-20T15:34:42;7.20;79.80
4960;DHT22;2495;48.200;11.532;2022-12-20T15:39:44;7.00;81.30
4960;DHT22;2495;48.200;11.532;2022-12-20T15:44:49;7.00;80.50
4960;DHT22;2495;48.200;11.532;2022-12-20T15:49:52;6.90;81.20
4960;DHT22;2495;48.200;11.532;2022-12-20T15:54:54;6.90;80.60
4960;DHT22;2495;48.200;11.532;2022-12-20T15:59:55;7.20;81.70
4960;DHT22;2495;48.200;11.532;2022-12-20T16:04:57;7.40;81.00
4960;DHT22;2495;48.200;11.532;2022-12-20T16:09:58;7.40;80.30
4960;DHT22;2495;48.200;11.532;2022-12-20T16:15:00;7.30;80.10
4960;DHT22;2495;48.200;11.532;2022-12-20T16:20:02;7.10;80.50
4960;DHT22;2495;48.200;11.532;2022-12-20T16:25:04;7.10;80.90
4960;DHT22;2495;48.200;11.532;2022-12-20T16:30:06;7.10;81.10
4960;DHT22;2495;48.200;11.532;2022-12-20T16:35:16;7.10;81.10
4960;DHT22;2495;48.200;11.532;2022-12-20T16:40:13;7.10;81.30
4960;DHT22;2495;48.200;11.532;2022-12-20T16:45:15;7.30;82.00
4960;DHT22;2495;48.200;11.532;2022-12-20T16:50:16;7.40;80.60
4960;DHT22;2495;48.200;11.532;2022-12-20T16:55:20;7.30;80.80
4960;DHT22;2495;48.200;11.532;2022-12-20T17:00:21;7.20;80.00
4960;DHT22;2495;48.200;11.532;2022-12-20T17:05:32;7.10;80.70
4960;DHT22;2495;48.200;11.532;2022-12-20T17:10:32;7.00;81.10
4960;DHT22;2495;48.200;11.532;2022-12-20T17:15:33;6.90;80.60
4960;DHT22;2495;48.200;11.532;2022-12-20T17:20:35;6.90;80.50
4960;DHT22;2495;48.200;11.532;2022-12-20T17:25:37;6.80;80.70
4960;DHT22;2495;48.200;11.532;2022-12-20T17:30:38;6.80;80.80
4960;DHT22;2495;48.200;11.532;2022-12-20T17:35:40;6.70;80.60
4960;DHT22;2495;48.200;11.532;2022-12-20T17:40:41;6.70;80.60
4960;DHT22;2495;48.200;11.532;2022-12-20T17:45:43;6.60;80.70
4960;DHT22;2495;48.200;11.532;2022-12-20T17:50:44;6.60;81.00
4960;DHT22;2495;48.200;11.532;2022-12-20T17:55:47;6.60;81.60
4960;DHT22;2495;48.200;11.532;2022-12-20T18:06:52;6.80;83.10
4960;DHT22;2495;48.200;11.532;2022-12-20T18:11:54;6.90;80.80
4960;DHT22;2495;48.200;11.532;2022-12-20T18:16:56;6.80;80.70
4960;DHT22;2495;48.200;11.532;2022-12-20T18:21:58;6.70;80.90
4960;DHT22;2495;48.200;11.532;2022-12-20T18:26:59;6.70;81.10
4960;DHT22;2495;48.200;11.532;2022-12-20T18:32:01;6.60;80.90
4960;DHT22;2495;48.200;11.532;2022-12-20T18:37:02;6.60;80.70
4960;DHT22;2495;48.200;11.532;2022-12-20T18:42:04;6.60;80.80
4960;DHT22;2495;48.200;11.532;2022-12-20T18:57:40;6.50;81.70
4960;DHT22;2495;48.200;11.532;2022-12-20T19:02:41;6.30;81.80
4960;DHT22;2495;48.200;11.532;2022-12-20T19:07:43;6.30;81.80
4960;DHT22;2495;48.200;11.532;2022-12-20T19:12:44;6.30;81.90
4960;DHT22;2495;48.200;11.532;2022-12-20T19:17:46;6.60;83.50
4960;DHT22;2495;48.200;11.532;2022-12-20T19:22:47;7.10;82.90
4960;DHT22;2495;48.200;11.532;2022-12-20T19:27:48;7.30;83.40
4960;DHT22;2495;48.200;11.532;2022-12-20T19:32:50;7.20;81.40
4960;DHT22;2495;48.200;11.532;2022-12-20T19:37:53;7.00;81.20
4960;DHT22;2495;48.200;11.532;2022-12-20T19:42:55;6.80;81.70
4960;DHT22;2495;48.200;11.532;2022-12-20T19:47:56;6.70;81.50
4960;DHT22;2495;48.200;11.532;2022-12-20T19:52:58;6.60;81.30
4960;DHT22;2495;48.200;11.532;2022-12-20T19:58:00;6.50;81.10
4960;DHT22;2495;48.200;11.532;2022-12-20T20:03:02;6.50;81.60
4960;DHT22;2495;48.200;11.532;2022-12-20T20:08:04;6.60;81.70
4960;DHT22;2495;48.200;11.532;2022-12-20T20:13:05;6.50;81.30
4960;DHT22;2495;48.200;11.532;2022-12-20T20:18:07;6.50;81.30
4960;DHT22;2495;48.200;11.532;2022-12-20T20:23:08;6.50;81.90
4960;DHT22;2495;48.200;11.532;2022-12-20T20:28:10;6.50;81.90
4960;DHT22;2495;48.200;11.532;2022-12-20T20:33:12;6.60;82.30
4960;DHT22;2495;48.200;11.532;2022-12-20T20:38:13;6.60;82.00
4960;DHT22;2495;48.200;11.532;2022-12-20T20:43:15;6.60;82.00
4960;DHT22;2495;48.200;11.532;2022-12-20T20:48:16;6.60;82.20
4960;DHT22;2495;48.200;11.532;2022-12-20T20:53:18;6.50;82.10
4960;DHT22;2495;48.200;11.532;2022-12-20T20:58:19;6.50;82.00
4960;DHT22;2495;48.200;11.532;2022-12-20T21:03:20;6.50;81.80
4960;DHT22;2495;48.200;11.532;2022-12-20T21:08:22;6.50;82.10
4960;DHT22;2495;48.200;11.532;2022-12-20T21:13:24;6.50;82.30
4960;DHT22;2495;48.200;11.532;2022-12-20T21:18:26;6.50;82.20
4960;DHT22;2495;48.200;11.532;2022-12-20T21:23:28;6.70;83.60
4960;DHT22;2495;48.200;11.532;2022-12-20T21:28:30;6.80;82.40
4960;DHT22;2495;48.200;11.532;2022-12-20T21:33:53;6.80;82.60
4960;DHT22;2495;48.200;11.532;2022-12-20T21:38:56;6.70;83.00
4960;DHT22;2495;48.200;11.532;2022-12-20T21:43:58;6.60;81.30
4960;DHT22;2495;48.200;11.532;2022-12-20T21:49:00;6.60;81.80
4960;DHT22;2495;48.200;11.532;2022-12-20T21:54:02;6.50;82.50
4960;DHT22;2495;48.200;11.532;2022-12-20T21:59:04;6.40;81.80
4960;DHT22;2495;48.200;11.532;2022-12-20T22:04:08;6.40;81.90
4960;DHT22;2495;48.200;11.532;2022-12-20T22:09:08;6.30;81.30
4960;DHT22;2495;48.200;11.532;2022-12-20T22:14:10;6.30;81.80
4960;DHT22;2495;48.200;11.532;2022-12-20T22:19:12;6.30;81.80
4960;DHT22;2495;48.200;11.532;2022-12-20T22:24:13;6.40;81.40
4960;DHT22;2495;48.200;11.532;2022-12-20T22:29:15;6.40;81.50
4960;DHT22;2495;48.200;11.532;2022-12-20T22:34:18;6.30;81.70
4960;DHT22;2495;48.200;11.532;2022-12-20T22:39:24;6.30;82.00
4960;DHT22;2495;48.200;11.532;2022-12-20T22:44:28;6.20;82.60
4960;DHT22;2495;48.200;11.532;2022-12-20T22:49:32;6.30;82.60
4960;DHT22;2495;48.200;11.532;2022-12-20T22:54:35;6.60;83.70
4960;DHT22;2495;48.200;11.532;2022-12-20T22:59:36;6.70;82.20
4960;DHT22;2495;48.200;11.532;2022-12-20T23:04:39;6.70;81.80
4960;DHT22;2495;48.200;11.532;2022-12-20T23:09:41;6.60;81.80
4960;DHT22;2495;48.200;11.532;2022-12-20T23:14:42;6.50;81.50
4960;DHT22;2495;48.200;11.532;2022-12-20T23:20:03;6.50;82.20
4960;DHT22;2495;48.200;11.532;2022-12-20T23:25:23;6.40;82.30
4960;DHT22;2495;48.200;11.532;2022-12-20T23:30:25;6.40;82.50
4960;DHT22;2495;48.200;11.532;2022-12-20T23:35:26;6.40;82.00
4960;DHT22;2495;48.200;11.532;2022-12-20T23:40:28;6.60;83.60
4960;DHT22;2495;48.200;11.532;2022-12-20T23:45:30;6.80;82.50
4960;DHT22;2495;48.200;11.532;2022-12-20T23:50:32;6.70;82.00
4960;DHT22;2495;48.200;11.532;2022-12-20T23:55:34;6.60;81.40
